Time;durP1;ratioP1;P1;durP2;ratioP2;P2;SDS_P1;SDS_P2;PMS_P1;PMS_P2;Temp;Humidity;BMP_temperature;BMP_pressure;BME280_temperature;BME280_humidity;BME280_pressure;Samples;Min_cycle;Max_cycle;Signal;HPM_P1;HPM_P2
2022/03/28 00:01:23;;;;;;;33.40;10.10;;;;;;;5.24;100.00;161937.91;5071854;28;20032;-60
2022/03/28 00:03:49;;;;;;;34.08;10.35;;;;;;;5.24;100.00;161937.91;5073664;28;20059;-60
2022/03/28 00:06:14;;;;;;;32.42;10.65;;;;;;;5.22;100.00;161932.53;5071465;28;20024;-60
2022/03/28 00:08:39;;;;;;;43.40;13.88;;;;;;;5.22;100.00;161931.19;5072104;28;20048;-60
2022/03/28 00:11:06;;;;;;;33.42;10.77;;;;;;;5.08;100.00;161896.25;5061524;28;20031;-60
2022/03/28 00:13:33;;;;;;;50.10;11.05;;;;;;;5.18;100.00;161920.41;5053214;28;20035;-60
2022/03/28 00:15:58;;;;;;;28.50;8.32;;;;;;;5.10;100.00;161898.94;5053195;28;20028;-60
2022/03/28 00:18:24;;;;;;;32.33;11.02;;;;;;;5.02;100.00;161880.13;5051502;28;20174;-60
2022/03/28 00:20:50;;;;;;;40.42;9.75;;;;;;;4.94;100.00;161858.59;5052634;28;20052;-60
2022/03/28 00:23:16;;;;;;;24.80;10.95;;;;;;;4.88;100.00;161842.41;5051475;28;20041;-60
2022/03/28 00:25:44;;;;;;;45.42;11.00;;;;;;;4.80;100.00;161822.25;5053595;28;20029;-60
2022/03/28 00:28:10;;;;;;;52.63;12.98;;;;;;;4.72;100.00;161802.13;5067561;28;20040;-60
2022/03/28 00:30:35;;;;;;;31.15;10.88;;;;;;;4.69;100.00;161794.03;5072812;28;20027;-60
2022/03/28 00:33:00;;;;;;;38.63;10.88;;;;;;;4.71;100.00;161799.41;5071652;28;20434;-60
2022/03/28 00:35:26;;;;;;;27.17;11.60;;;;;;;4.49;100.00;161740.25;5066542;28;20028;-60
2022/03/28 00:37:53;;;;;;;43.17;11.98;;;;;;;4.65;100.00;161781.91;5066939;28;20154;-60
2022/03/28 00:40:20;;;;;;;39.50;9.15;;;;;;;4.64;100.00;161779.22;5071390;28;20459;-60
2022/03/28 00:42:47;;;;;;;30.75;9.07;;;;;;;4.44;100.00;161729.47;5069307;28;20151;-60
2022/03/28 00:45:13;;;;;;;31.45;11.25;;;;;;;4.56;100.00;161759.09;5071815;28;20032;-60
2022/03/28 00:47:38;;;;;;;37.63;9.85;;;;;;;4.55;100.00;161756.38;5071000;28;20439;-60
2022/03/28 00:50:04;;;;;;;40.90;14.55;;;;;;;4.56;100.00;161759.09;5071926;28;20020;-60
2022/03/28 00:52:29;;;;;;;43.83;12.18;;;;;;;4.58;100.00;161764.44;5070232;28;20052;-61
2022/03/28 00:54:57;;;;;;;51.03;14.00;;;;;;;4.55;100.00;161756.38;5064826;28;20020;-61
2022/03/28 00:57:23;;;;;;;42.00;16.37;;;;;;;4.55;100.00;161756.38;5062654;28;20679;-61
2022/03/28 00:59:48;;;;;;;45.70;14.57;;;;;;;4.52;100.00;161748.31;5071885;28;20021;-60
2022/03/28 01:02:13;;;;;;;38.67;14.20;;;;;;;4.50;100.00;161742.97;5070641;28;20055;-60
2022/03/28 01:04:39;;;;;;;26.25;12.18;;;;;;;4.43;100.00;161726.78;5072482;28;20029;-60
2022/03/28 01:07:08;;;;;;;44.80;16.52;;;;;;;4.39;100.00;161714.72;5065021;28;20082;-60
2022/03/28 01:09:34;;;;;;;42.63;14.02;;;;;;;4.36;100.00;161707.97;5072200;28;20130;-60
2022/03/28 01:12:00;;;;;;;38.75;13.07;;;;;;;4.37;100.00;161710.66;5069491;28;20037;-59
2022/03/28 01:14:26;;;;;;;32.08;9.95;;;;;;;4.36;100.00;161707.97;5071628;28;20077;-59
2022/03/28 01:19:35;;;;;;;41.65;17.25;;;;;;;4.36;100.00;161707.97;5071762;28;20560;-59
2022/03/28 01:22:00;;;;;;;34.53;10.73;;;;;;;4.34;100.00;161702.63;5069672;28;20044;-59
2022/03/28 01:24:26;;;;;;;53.78;13.30;;;;;;;4.32;100.00;161697.22;5071827;28;20539;-59
2022/03/28 01:26:52;;;;;;;29.40;11.07;;;;;;;4.28;100.00;161686.50;5070211;28;20044;-59
2022/03/28 01:29:17;;;;;;;35.17;9.82;;;;;;;4.26;100.00;161682.44;5071279;28;20031;-59
2022/03/28 01:31:43;;;;;;;36.90;12.07;;;;;;;4.22;100.00;161671.69;5070397;28;20040;-60
2022/03/28 01:34:19;;;;;;;34.13;15.77;;;;;;;4.19;100.00;161663.63;5055153;28;20490;-60
2022/03/28 01:36:47;;;;;;;45.10;11.35;;;;;;;4.16;100.00;161655.59;5044931;28;20094;-59
2022/03/28 01:39:13;;;;;;;56.08;14.95;;;;;;;4.09;100.00;161638.09;5051506;28;20029;-59
2022/03/28 01:41:38;;;;;;;37.58;11.82;;;;;;;4.05;100.00;161627.38;5050188;28;20040;-59
2022/03/28 01:44:05;;;;;;;45.72;11.70;;;;;;;4.02;100.00;161617.97;5061405;28;20029;-60
2022/03/28 01:46:30;;;;;;;53.63;16.80;;;;;;;3.98;100.00;161608.53;5068438;28;20040;-60
2022/03/28 01:48:55;;;;;;;34.85;11.75;;;;;;;3.93;100.00;161595.06;5071093;28;20051;-60
2022/03/28 01:51:21;;;;;;;48.63;11.50;;;;;;;3.90;100.00;161587.03;5051989;28;20040;-60
2022/03/28 01:53:46;;;;;;;47.22;15.60;;;;;;;3.89;100.00;161584.34;5071591;28;20024;-60
2022/03/28 01:56:11;;;;;;;36.38;16.52;;;;;;;3.77;100.00;161554.75;5069390;28;20032;-59
2022/03/28 01:58:37;;;;;;;50.70;14.82;;;;;;;3.87;100.00;161580.28;5070838;28;20415;-60
2022/03/28 02:01:02;;;;;;;37.22;10.88;;;;;;;3.87;100.00;161580.28;5069779;28;20027;-60
2022/03/28 02:03:27;;;;;;;37.13;10.70;;;;;;;3.86;100.00;161576.25;5070475;28;20028;-59
2022/03/28 02:05:53;;;;;;;49.38;13.95;;;;;;;3.84;100.00;161570.88;5070615;28;20054;-60
2022/03/28 02:08:18;;;;;;;43.13;14.35;;;;;;;3.71;100.00;161537.31;5068961;28;20123;-59
2022/03/28 02:10:43;;;;;;;54.40;15.40;;;;;;;3.78;100.00;161557.44;5071008;28;20506;-59
2022/03/28 02:13:09;;;;;;;39.28;14.38;;;;;;;3.77;100.00;161554.75;5068567;28;20411;-60
2022/03/28 02:15:34;;;;;;;47.58;13.20;;;;;;;3.74;100.00;161546.72;5070895;28;20020;-60
2022/03/28 02:17:59;;;;;;;37.45;10.27;;;;;;;3.72;100.00;161540.00;5069020;28;20045;-60
2022/03/28 02:20:25;;;;;;;39.22;15.35;;;;;;;3.73;100.00;161544.03;5070300;28;20017;-59
2022/03/28 02:22:50;;;;;;;54.88;14.57;;;;;;;3.72;100.00;161541.34;5069493;28;20040;-59
2022/03/28 02:25:16;;;;;;;40.75;14.27;;;;;;;3.70;100.00;161534.63;5054737;28;20036;-59
2022/03/28 02:27:43;;;;;;;30.60;14.88;;;;;;;3.39;100.00;161455.34;5048893;28;20523;-59
2022/03/28 02:30:10;;;;;;;42.53;17.67;;;;;;;3.62;100.00;161514.44;5050584;28;20048;-59
2022/03/28 02:32:36;;;;;;;40.63;14.38;;;;;;;3.58;100.00;161505.03;5062396;28;20044;-59
2022/03/28 02:35:03;;;;;;;42.67;12.63;;;;;;;3.56;100.00;161498.34;5064685;28;20031;-59
2022/03/28 02:37:28;;;;;;;51.40;14.25;;;;;;;3.53;100.00;161490.31;5061788;28;20113;-59
2022/03/28 02:39:54;;;;;;;42.67;16.00;;;;;;;3.51;100.00;161484.91;5070750;28;20422;-59
2022/03/28 02:42:22;;;;;;;41.92;14.77;;;;;;;3.48;100.00;161478.22;5068781;28;20577;-59
2022/03/28 02:44:48;;;;;;;35.22;15.85;;;;;;;3.46;100.00;161472.81;5070698;28;20032;-59
2022/03/28 02:47:13;;;;;;;86.47;26.92;;;;;;;3.42;100.00;161463.41;5053516;28;20037;-59
2022/03/28 02:49:39;;;;;;;31.08;13.57;;;;;;;3.40;100.00;161456.69;5054309;28;20031;-59
2022/03/28 02:52:06;;;;;;;40.58;14.52;;;;;;;3.35;100.00;161444.59;5068940;28;20051;-60
2022/03/28 02:54:31;;;;;;;41.97;16.10;;;;;;;3.32;100.00;161437.91;5070208;28;20024;-59
2022/03/28 02:56:57;;;;;;;39.15;13.70;;;;;;;3.29;100.00;161429.81;5068813;28;20431;-59
2022/03/28 02:59:23;;;;;;;36.13;13.68;;;;;;;3.22;100.00;161409.69;5071191;28;20032;-59
2022/03/28 03:01:50;;;;;;;48.58;17.17;;;;;;;3.20;100.00;161404.31;5073043;28;20471;-59
2022/03/28 03:04:15;;;;;;;41.15;13.27;;;;;;;3.20;100.00;161405.69;5073862;28;20020;-59
2022/03/28 03:06:41;;;;;;;38.10;15.20;;;;;;;3.18;100.00;161401.63;5059181;28;20053;-59
2022/03/28 03:09:06;;;;;;;47.05;20.08;;;;;;;3.16;100.00;161396.22;5053910;28;20078;-59
2022/03/28 03:11:31;;;;;;;42.08;17.20;;;;;;;3.16;100.00;161396.22;5057069;28;20102;-59
2022/03/28 03:13:57;;;;;;;53.85;16.58;;;;;;;3.15;100.00;161392.22;5074234;28;20021;-59
2022/03/28 03:16:23;;;;;;;30.63;15.80;;;;;;;3.10;100.00;161380.13;5072622;28;20033;-60
2022/03/28 03:18:48;;;;;;;40.20;13.30;;;;;;;3.06;100.00;161369.41;5073739;28;20032;-60
2022/03/28 03:21:13;;;;;;;31.75;14.02;;;;;;;3.04;100.00;161364.00;5068192;28;20051;-60
2022/03/28 03:23:39;;;;;;;43.95;16.25;;;;;;;3.00;100.00;161354.59;5074102;28;20024;-60
2022/03/28 03:26:04;;;;;;;40.20;19.25;;;;;;;2.96;100.00;161343.88;5072583;28;20031;-60
2022/03/28 03:28:29;;;;;;;33.30;12.48;;;;;;;2.94;100.00;161337.19;5073877;28;20111;-60
2022/03/28 03:30:55;;;;;;;35.80;16.10;;;;;;;2.91;100.00;161329.09;5067306;28;20028;-59
2022/03/28 03:33:20;;;;;;;38.58;15.50;;;;;;;2.84;100.00;161313.00;5069850;28;20044;-58
2022/03/28 03:35:46;;;;;;;31.27;15.82;;;;;;;2.81;100.00;161303.59;5073427;28;20032;-59
2022/03/28 03:38:11;;;;;;;30.67;14.15;;;;;;;2.78;100.00;161295.53;5072233;28;20040;-61
2022/03/28 03:40:37;;;;;;;33.63;15.07;;;;;;;2.71;100.00;161278.09;5073065;28;20035;-61
2022/03/28 03:43:02;;;;;;;40.35;18.27;;;;;;;2.71;100.00;161278.09;5072230;28;20045;-61
2022/03/28 03:45:27;;;;;;;36.60;18.15;;;;;;;2.68;100.00;161270.03;5073182;28;20426;-61
2022/03/28 03:47:53;;;;;;;36.13;16.60;;;;;;;2.65;100.00;161261.94;5071843;28;20033;-60
2022/03/28 03:50:18;;;;;;;39.85;18.15;;;;;;;2.59;100.00;161245.84;5072560;28;20024;-60
2022/03/28 03:52:44;;;;;;;35.58;18.00;;;;;;;2.53;100.00;161232.44;5071892;28;20040;-60
2022/03/28 03:55:09;;;;;;;31.25;16.95;;;;;;;2.49;100.00;161221.72;5071747;28;20074;-60
2022/03/28 03:57:35;;;;;;;28.08;16.67;;;;;;;2.41;100.00;161200.22;5071807;28;20036;-60
2022/03/28 04:00:00;;;;;;;32.67;19.00;;;;;;;2.26;100.00;161161.28;5072836;28;20036;-59
2022/03/28 04:02:26;;;;;;;38.00;20.48;;;;;;;2.19;100.00;161142.47;5071475;28;20462;-59
2022/03/28 04:04:51;;;;;;;52.88;21.48;;;;;;;2.13;100.00;161127.72;5073322;28;20035;-59
2022/03/28 04:07:17;;;;;;;64.35;26.30;;;;;;;2.12;100.00;161125.06;5071651;28;20053;-59
2022/03/28 04:09:42;;;;;;;47.08;23.58;;;;;;;2.16;100.00;161134.47;5073030;28;20434;-59
2022/03/28 04:12:09;;;;;;;63.10;28.75;;;;;;;2.19;100.00;161142.47;5062697;28;20036;-57
2022/03/28 04:14:34;;;;;;;57.50;31.27;;;;;;;2.03;100.00;161100.91;5070738;28;20058;-57
2022/03/28 04:16:59;;;;;;;70.40;26.25;;;;;;;2.15;100.00;161133.09;5066277;28;20045;-57
2022/03/28 04:19:25;;;;;;;72.53;26.83;;;;;;;2.10;100.00;161118.31;5051658;28;20021;-57
2022/03/28 04:21:50;;;;;;;65.93;26.55;;;;;;;2.04;100.00;161103.59;5058095;28;20048;-57
2022/03/28 04:24:16;;;;;;;75.07;27.85;;;;;;;2.03;100.00;161100.91;5071550;28;20040;-57
2022/03/28 04:26:41;;;;;;;69.63;36.05;;;;;;;2.10;100.00;161119.69;5070706;28;20176;-57
2022/03/28 04:29:06;;;;;;;86.45;28.90;;;;;;;2.09;100.00;161117.00;5060339;28;20024;-57
2022/03/28 04:31:32;;;;;;;99.13;32.60;;;;;;;2.03;100.00;161100.91;5061368;28;20049;-57
2022/03/28 04:33:57;;;;;;;76.57;28.60;;;;;;;2.10;100.00;161118.31;5069142;28;20028;-57
2022/03/28 04:36:23;;;;;;;74.18;36.83;;;;;;;2.17;100.00;161138.47;5068836;28;20583;-57
2022/03/28 04:38:49;;;;;;;83.47;32.65;;;;;;;1.99;100.00;161090.13;5068926;28;20063;-57
2022/03/28 04:41:14;;;;;;;92.57;32.17;;;;;;;2.10;100.00;161119.69;5068713;28;20070;-57
2022/03/28 04:43:39;;;;;;;80.00;28.42;;;;;;;2.10;100.00;161119.69;5071179;28;20035;-57
2022/03/28 04:46:05;;;;;;;95.40;29.40;;;;;;;2.09;100.00;161117.00;5069166;28;20029;-57
2022/03/28 04:48:30;;;;;;;126.28;33.45;;;;;;;2.12;100.00;161123.69;5071474;28;20028;-57
2022/03/28 04:50:55;;;;;;;90.25;32.47;;;;;;;2.16;100.00;161134.47;5072582;28;20024;-57
2022/03/28 04:53:21;;;;;;;73.22;30.50;;;;;;;2.12;100.00;161125.06;5070351;28;20063;-57
2022/03/28 04:55:46;;;;;;;79.63;33.38;;;;;;;2.19;100.00;161143.84;5070704;28;20032;-57
2022/03/28 04:58:12;;;;;;;69.80;31.73;;;;;;;2.20;100.00;161146.50;5070618;28;20383;-57
2022/03/28 05:00:37;;;;;;;78.88;30.02;;;;;;;2.22;100.00;161151.88;5072136;28;20031;-57
2022/03/28 05:03:02;;;;;;;70.95;32.03;;;;;;;2.25;100.00;161157.25;5070399;28;20032;-57
2022/03/28 05:05:28;;;;;;;83.18;37.65;;;;;;;2.22;100.00;161151.88;5071899;28;20047;-57
2022/03/28 05:07:53;;;;;;;59.30;31.23;;;;;;;2.16;100.00;161135.78;5070167;28;20052;-57
2022/03/28 05:10:18;;;;;;;82.47;42.00;;;;;;;2.22;100.00;161151.88;5071136;28;20050;-57
2022/03/28 05:12:45;;;;;;;102.68;42.60;;;;;;;2.07;100.00;161111.59;5070678;28;20446;-57
2022/03/28 05:15:10;;;;;;;96.75;41.22;;;;;;;2.26;100.00;161161.28;5071460;28;20025;-57
2022/03/28 05:17:35;;;;;;;88.15;37.05;;;;;;;2.29;100.00;161167.97;5070038;28;20146;-57
2022/03/28 05:20:01;;;;;;;85.20;33.83;;;;;;;2.28;100.00;161165.28;5071847;28;20483;-57
2022/03/28 05:22:27;;;;;;;85.32;34.80;;;;;;;2.31;100.00;161173.34;5069810;28;20060;-57
2022/03/28 05:24:54;;;;;;;74.75;37.13;;;;;;;2.44;100.00;161206.94;5071354;28;20028;-57
2022/03/28 05:27:20;;;;;;;89.03;37.17;;;;;;;2.43;100.00;161204.25;5070320;28;20116;-57
2022/03/28 05:29:46;;;;;;;92.55;36.33;;;;;;;2.44;100.00;161208.25;5071543;28;20223;-57
2022/03/28 05:32:11;;;;;;;81.82;31.60;;;;;;;2.49;100.00;161221.72;5069630;28;20080;-57
2022/03/28 05:34:37;;;;;;;125.75;36.15;;;;;;;2.29;100.00;161167.97;5071445;28;20107;-57
2022/03/28 05:37:09;;;;;;;88.53;34.25;;;;;;;2.44;100.00;161208.25;5069976;28;20040;-57
2022/03/28 05:39:36;;;;;;;67.80;31.95;;;;;;;2.47;100.00;161216.31;5071049;28;20052;-57
2022/03/28 05:42:03;;;;;;;111.88;38.40;;;;;;;2.42;100.00;161201.53;5070148;28;20041;-57
2022/03/28 05:44:28;;;;;;;93.97;35.08;;;;;;;2.43;100.00;161205.56;5070988;28;20024;-57
2022/03/28 05:46:54;;;;;;;75.80;32.40;;;;;;;2.46;100.00;161213.63;5069579;28;20036;-57
2022/03/28 05:49:19;;;;;;;100.88;29.33;;;;;;;2.27;100.00;161162.66;5071335;28;20028;-57
2022/03/28 05:51:45;;;;;;;108.68;35.20;;;;;;;2.46;100.00;161213.63;5069723;28;20040;-57
2022/03/28 05:54:12;;;;;;;137.48;36.55;;;;;;;2.35;100.00;161184.06;5070783;28;20025;-57
2022/03/28 05:56:38;;;;;;;86.50;39.15;;;;;;;2.50;100.00;161224.34;5069730;28;20492;-57
2022/03/28 05:59:03;;;;;;;83.90;36.88;;;;;;;2.60;100.00;161249.91;5071010;28;20166;-57
2022/03/28 06:01:29;;;;;;;77.93;33.42;;;;;;;2.52;100.00;161229.75;5069163;28;20098;-57
2022/03/28 06:03:54;;;;;;;120.57;35.00;;;;;;;2.76;100.00;161291.50;5071022;28;20036;-57
2022/03/28 06:06:20;;;;;;;81.38;34.88;;;;;;;2.76;100.00;161291.50;5069650;28;20032;-57
2022/03/28 06:08:45;;;;;;;100.07;33.90;;;;;;;2.74;100.00;161286.13;5070772;28;20442;-57
2022/03/28 06:11:11;;;;;;;73.75;29.50;;;;;;;2.81;100.00;161304.91;5069365;28;20024;-57
2022/03/28 06:13:36;;;;;;;100.30;31.60;;;;;;;2.92;100.00;161331.78;5070967;28;20077;-57
2022/03/28 06:16:02;;;;;;;93.53;35.03;;;;;;;2.73;100.00;161283.44;5068055;28;20028;-57
2022/03/28 06:18:28;;;;;;;83.20;34.45;;;;;;;2.91;100.00;161329.09;5070805;28;20522;-57
2022/03/28 06:20:53;;;;;;;98.47;36.10;;;;;;;2.91;100.00;161330.41;5070892;28;20025;-57
2022/03/28 06:23:18;;;;;;;79.72;33.65;;;;;;;3.04;100.00;161364.00;5069079;28;20040;-57
2022/03/28 06:25:44;;;;;;;83.68;38.55;;;;;;;3.03;100.00;161361.31;5070949;28;20029;-57
2022/03/28 06:28:10;;;;;;;64.78;31.42;;;;;;;3.12;100.00;161385.50;5068562;28;20040;-57
2022/03/28 06:30:36;;;;;;;61.22;26.90;;;;;;;3.16;100.00;161394.91;5070309;28;20095;-57
2022/03/28 06:33:02;;;;;;;89.45;29.30;;;;;;;3.06;100.00;161368.03;5067253;28;20089;-57
2022/03/28 06:35:27;;;;;;;62.25;33.45;;;;;;;3.04;100.00;161364.00;5068482;28;20434;-57
2022/03/28 06:37:53;;;;;;;88.38;33.95;;;;;;;2.92;100.00;161331.78;5069443;28;20040;-57
2022/03/28 06:40:19;;;;;;;71.25;31.77;;;;;;;2.94;100.00;161337.19;5070479;28;20020;-57
2022/03/28 06:42:44;;;;;;;68.07;36.55;;;;;;;3.04;100.00;161364.00;5052282;28;20041;-57
2022/03/28 06:45:11;;;;;;;59.03;27.17;;;;;;;3.21;100.00;161407.00;5050553;28;20028;-57
2022/03/28 06:47:37;;;;;;;42.85;25.08;;;;;;;3.44;100.00;161468.81;5063600;28;20496;-57
2022/03/28 06:50:05;;;;;;;59.88;27.95;;;;;;;3.58;100.00;161505.03;5070999;28;20035;-57
2022/03/28 06:52:30;;;;;;;49.95;24.95;;;;;;;3.75;100.00;161549.41;5068972;28;20454;-57
2022/03/28 06:54:56;;;;;;;60.60;23.67;;;;;;;3.86;100.00;161576.25;5070313;28;20020;-57
2022/03/28 06:57:22;;;;;;;42.53;25.23;;;;;;;3.81;100.00;161565.53;5069002;28;20111;-57
2022/03/28 06:59:48;;;;;;;39.00;22.55;;;;;;;3.90;100.00;161588.38;5070757;28;20085;-57
2022/03/28 07:02:13;;;;;;;36.00;20.08;;;;;;;3.76;100.00;161552.06;5068564;28;20048;-57
2022/03/28 07:04:39;;;;;;;37.60;19.67;;;;;;;3.44;100.00;161468.81;5070878;28;20476;-57
2022/03/28 07:07:04;;;;;;;36.22;20.63;;;;;;;3.46;100.00;161474.13;5069259;28;20392;-57
2022/03/28 07:09:29;;;;;;;34.58;19.67;;;;;;;3.38;100.00;161452.69;5070161;28;20043;-57
2022/03/28 07:11:55;;;;;;;31.83;20.27;;;;;;;3.34;100.00;161441.91;5068857;28;20036;-57
2022/03/28 07:14:20;;;;;;;34.47;21.77;;;;;;;3.42;100.00;161463.41;5070503;28;20020;-57
2022/03/28 07:16:46;;;;;;;30.02;20.33;;;;;;;3.68;100.00;161529.25;5060123;28;20037;-57
2022/03/28 07:19:13;;;;;;;33.42;22.25;;;;;;;3.90;100.00;161587.03;5050405;28;20025;-57
2022/03/28 07:21:38;;;;;;;27.27;21.15;;;;;;;4.01;100.00;161616.59;5055592;28;20060;-57
2022/03/28 07:24:04;;;;;;;29.85;20.70;;;;;;;4.24;100.00;161677.09;5070223;28;20086;-57
2022/03/28 07:26:29;;;;;;;29.95;21.08;;;;;;;4.51;100.00;161746.97;5068910;28;20043;-57
2022/03/28 07:28:58;;;;;;;36.35;22.52;;;;;;;4.34;100.00;161701.25;5070480;28;20028;-57
2022/03/28 07:31:23;;;;;;;38.13;22.65;;;;;;;4.38;100.00;161713.34;5068553;28;20108;-57
2022/03/28 07:33:48;;;;;;;30.67;23.38;;;;;;;4.08;100.00;161634.06;5070426;28;20116;-57
2022/03/28 07:36:15;;;;;;;26.77;18.50;;;;;;;3.93;100.00;161595.06;5068758;28;20028;-57
2022/03/28 07:38:41;;;;;;;29.67;19.20;;;;;;;3.77;100.00;161554.75;5070148;28;20543;-57
2022/03/28 07:41:06;;;;;;;29.52;19.05;;;;;;;3.69;100.00;161533.25;5067758;28;20116;-57
2022/03/28 07:43:32;;;;;;;31.00;20.00;;;;;;;3.97;100.00;161605.84;5070357;28;20029;-57
2022/03/28 07:45:58;;;;;;;33.42;20.55;;;;;;;3.86;100.00;161577.63;5070770;28;20373;-57
2022/03/28 07:48:23;;;;;;;35.10;21.58;;;;;;;4.08;100.00;161635.41;5073552;28;20107;-57
2022/03/28 07:50:49;;;;;;;34.85;22.15;;;;;;;4.39;100.00;161716.06;5073909;28;20032;-57
2022/03/28 07:53:15;;;;;;;32.20;19.08;;;;;;;4.71;100.00;161799.41;5071778;28;20056;-57
2022/03/28 07:55:41;;;;;;;31.70;19.13;;;;;;;4.53;100.00;161751.00;5073702;28;20028;-57
2022/03/28 07:58:08;;;;;;;25.58;17.65;;;;;;;4.82;100.00;161826.28;5072105;28;20040;-57
2022/03/28 08:00:34;;;;;;;30.17;18.00;;;;;;;4.71;100.00;161799.41;5073229;28;20468;-57
2022/03/28 08:03:00;;;;;;;25.60;19.65;;;;;;;4.38;100.00;161713.34;5072209;28;20040;-57
2022/03/28 08:05:26;;;;;;;40.30;20.05;;;;;;;4.54;100.00;161753.69;5073351;28;20029;-57
2022/03/28 08:07:53;;;;;;;24.27;16.23;;;;;;;4.18;100.00;161659.59;5071601;28;20072;-57
2022/03/28 08:10:19;;;;;;;25.88;17.83;;;;;;;4.24;100.00;161675.72;5073185;28;20028;-57
2022/03/28 08:12:45;;;;;;;23.58;19.27;;;;;;;4.49;100.00;161741.59;5071858;28;20037;-57
2022/03/28 08:15:12;;;;;;;22.75;16.90;;;;;;;4.88;100.00;161842.41;5073192;28;20486;-57
2022/03/28 08:17:39;;;;;;;21.35;17.20;;;;;;;5.22;100.00;161931.19;5072008;28;20043;-57
2022/03/28 08:20:09;;;;;;;23.88;17.63;;;;;;;5.42;100.00;161982.31;5073109;28;20047;-57
2022/03/28 08:22:46;;;;;;;23.27;15.73;;;;;;;5.36;100.00;161968.88;5071549;28;20040;-57
2022/03/28 08:25:13;;;;;;;25.85;16.63;;;;;;;5.52;100.00;162009.22;5073188;28;20020;-57
2022/03/28 08:27:38;;;;;;;25.35;15.10;;;;;;;5.48;100.00;161998.44;5071513;28;20564;-57
2022/03/28 08:30:04;;;;;;;24.73;17.85;;;;;;;5.38;100.00;161974.25;5072866;28;20028;-57
2022/03/28 08:32:30;;;;;;;22.30;17.73;;;;;;;5.62;100.00;162034.78;5071333;28;20029;-57
2022/03/28 08:34:55;;;;;;;21.15;15.60;;;;;;;5.42;100.00;161983.69;5072927;28;20070;-57
2022/03/28 08:37:21;;;;;;;23.20;19.08;;;;;;;5.33;100.00;161959.44;5070974;28;20389;-57
2022/03/28 08:39:49;;;;;;;25.33;16.80;;;;;;;5.23;100.00;161935.22;5073259;28;20086;-57
2022/03/28 08:42:15;;;;;;;30.42;22.88;;;;;;;5.54;100.00;162015.94;5058215;28;20049;-56
2022/03/28 08:44:41;;;;;;;25.67;18.27;;;;;;;5.78;100.00;162077.84;5044346;28;20052;-57
2022/03/28 08:47:10;;;;;;;36.33;19.90;;;;;;;6.02;100.00;162141.13;5051052;28;20064;-57
2022/03/28 08:49:36;;;;;;;;;;;;;;;6.03;100.00;162143.84;5035866;28;20105;-57
2022/03/28 08:52:03;;;;;;;37.08;21.45;;;;;;;6.21;100.00;162188.22;5048489;28;20015;-57
2022/03/28 08:54:28;;;;;;;30.70;22.73;;;;;;;5.69;100.00;162055.00;5072349;28;20028;-57
2022/03/28 08:56:53;;;;;;;35.33;25.17;;;;;;;5.47;100.00;161997.13;5070278;28;20457;-57
2022/03/28 08:59:19;;;;;;;38.38;24.45;;;;;;;5.42;100.00;161982.31;5070529;28;20093;-57
2022/03/28 09:01:45;;;;;;;30.30;23.58;;;;;;;5.27;100.00;161944.66;5066997;28;20040;-57
2022/03/28 09:04:12;;;;;;;38.65;23.50;;;;;;;4.97;100.00;161866.63;5072141;28;20108;-57
2022/03/28 09:06:39;;;;;;;35.15;25.02;;;;;;;5.30;100.00;161951.34;5068443;28;20116;-56
2022/03/28 09:09:13;;;;;;;36.70;22.65;;;;;;;5.36;100.00;161968.88;5072276;28;20422;-57
2022/03/28 09:11:40;;;;;;;41.03;24.75;;;;;;;5.48;100.00;161998.44;5070113;28;20044;-57
2022/03/28 09:14:05;;;;;;;50.60;28.77;;;;;;;5.45;100.00;161990.41;5071710;28;20070;-57
2022/03/28 09:16:34;;;;;;;41.63;22.33;;;;;;;5.73;100.00;162064.41;5070302;28;20491;-57
2022/03/28 09:19:00;;;;;;;;;;;;;;;5.93;100.00;162116.84;5072801;28;20498;-57
2022/03/28 09:21:25;;;;;;;31.90;19.77;;;;;;;5.94;100.00;162118.22;5069977;28;19916;-56
2022/03/28 09:23:52;;;;;;;31.75;22.17;;;;;;;5.92;100.00;162114.16;5071274;28;20032;-57
2022/03/28 09:26:24;;;;;;;30.30;20.95;;;;;;;6.21;100.00;162188.22;5069468;28;20074;-57
2022/03/28 09:28:56;;;;;;;33.35;21.05;;;;;;;6.41;100.00;162240.75;5071526;28;20020;-57
2022/03/28 09:31:30;;;;;;;26.33;17.75;;;;;;;6.44;100.00;162248.84;5069242;28;20115;-57
2022/03/28 09:33:59;;;;;;;26.98;20.42;;;;;;;6.90;100.00;162368.66;5068099;28;20024;-57
2022/03/28 09:36:35;;;;;;;31.23;21.42;;;;;;;7.05;100.00;162407.66;5069354;28;20116;-57
2022/03/28 09:39:01;;;;;;;26.77;17.98;;;;;;;7.27;100.00;162466.94;5071222;28;20056;-56
2022/03/28 09:41:30;;;;;;;25.20;16.80;;;;;;;7.75;100.00;162590.88;5070211;28;20568;-57
2022/03/28 09:43:56;;;;;;;28.85;16.67;;;;;;;7.57;100.00;162545.06;5053602;28;20040;-57
2022/03/28 09:46:26;;;;;;;33.20;16.35;;;;;;;7.23;100.00;162454.81;5053274;28;20037;-57
2022/03/28 09:48:51;;;;;;;21.00;16.48;;;;;;;7.10;100.00;162422.50;5071686;28;20109;-57
2022/03/28 09:51:18;;;;;;;25.13;17.75;;;;;;;7.57;100.00;162543.75;5069561;28;20476;-56
2022/03/28 09:53:44;;;;;;;23.13;15.95;;;;;;;8.04;100.00;162666.34;5064919;28;20077;-56
2022/03/28 09:56:11;;;;;;;23.33;16.95;;;;;;;8.46;100.00;162775.50;5068826;28;20087;-57
2022/03/28 09:58:48;;;;;;;23.27;16.00;;;;;;;8.45;100.00;162774.13;5069946;28;20410;-57
2022/03/28 10:01:35;;;;;;;25.70;14.70;;;;;;;8.87;100.00;162884.78;5067272;28;20028;-57
2022/03/28 10:04:05;;;;;;;23.13;16.20;;;;;;;8.19;100.00;162705.44;5062990;28;20025;-56
2022/03/28 10:06:32;;;;;;;22.45;18.10;;;;;;;7.89;100.00;162628.63;5068711;28;20036;-57
2022/03/28 10:08:57;;;;;;;22.25;17.50;;;;;;;7.76;100.00;162593.59;5062818;28;20053;-56
2022/03/28 10:11:24;;;;;;;29.45;18.60;;;;;;;7.52;100.00;162531.59;5068577;28;20037;-57
2022/03/28 10:13:50;;;;;;;26.42;18.90;;;;;;;7.97;100.00;162648.81;5058061;28;20037;-57
2022/03/28 10:16:16;;;;;;;25.65;21.05;;;;;;;8.18;100.00;162704.06;5040371;28;20480;-57
2022/03/28 10:18:47;;;;;;;24.58;15.25;;;;;;;8.98;100.00;162911.72;5064102;28;20046;-57
2022/03/28 10:21:15;;;;;;;24.10;16.02;;;;;;;8.64;100.00;162822.75;5049002;28;20029;-57
2022/03/28 10:23:48;;;;;;;23.90;16.20;;;;;;;8.51;100.00;162790.41;5055183;28;20024;-57
2022/03/28 10:26:15;;;;;;;23.23;17.30;;;;;;;8.62;100.00;162817.34;5062316;28;20046;-56
2022/03/28 10:28:41;;;;;;;21.30;15.32;;;;;;;8.89;100.00;162888.81;5054312;28;20028;-57
2022/03/28 10:31:17;;;;;;;18.73;14.75;;;;;;;9.09;100.00;162940.03;5065540;28;20016;-57
2022/03/28 10:33:48;;;;;;;25.10;16.73;;;;;;;8.85;100.00;162878.03;5071034;28;20107;-56
2022/03/28 10:36:29;;;;;;;23.88;19.10;;;;;;;8.69;100.00;162837.59;5069014;28;20024;-56
2022/03/28 10:39:15;;;;;;;27.50;16.55;;;;;;;8.60;100.00;162813.31;5055065;28;20025;-56
2022/03/28 10:41:41;;;;;;;23.42;16.23;;;;;;;8.36;100.00;162749.91;5052297;28;20407;-57
2022/03/28 10:44:07;;;;;;;24.27;16.40;;;;;;;8.80;100.00;162864.53;5068826;28;20028;-56
2022/03/28 10:46:35;;;;;;;23.30;16.90;;;;;;;9.36;100.00;163011.50;5069384;28;20044;-57
2022/03/28 10:49:00;;;;;;;23.63;16.98;;;;;;;9.73;100.00;163108.63;5070773;28;20106;-57
2022/03/28 10:51:31;;;;;;;23.40;17.30;;;;;;;10.59;100.00;163332.72;5068760;28;20632;-57
2022/03/28 10:54:09;;;;;;;25.70;15.45;;;;;;;10.84;100.00;163397.47;5059640;28;20024;-57
2022/03/28 10:56:35;;;;;;;25.95;17.23;;;;;;;11.13;100.00;163474.44;5052754;28;20063;-57
2022/03/28 10:59:07;;;;;;;27.67;16.73;;;;;;;12.14;100.00;163737.88;5064594;28;20075;-56
2022/03/28 11:01:46;;;;;;;18.38;14.27;;;;;;;11.58;100.00;163591.91;5049130;28;20107;-57
2022/03/28 11:04:23;;;;;;;14.77;13.13;;;;;;;11.26;100.00;163508.22;5050606;28;20025;-57
2022/03/28 11:07:00;;;;;;;15.93;12.25;;;;;;;10.77;100.00;163381.28;5049244;28;20033;-57
2022/03/28 11:09:50;;;;;;;18.92;12.32;;;;;;;11.03;100.00;163448.81;5050488;28;20029;-57